»·PEaware :: N719FT KDEN-KASE

N719FT :: KDEN-KASE

FLIGHT INFORMATION

Flight Status: Arrived
Operator: Privately registered:
United States
More flights under this callsign
Pilot: Gregory K. (31901)
Aircraft: SOCATA TBM-900
(TBM9)
More flights by this aircraft type
Origin: KDEN Denver Intl
United States
Destination: KASE Aspen-Pitkin Co/Sardy
United States
More flights between these airports :: More routes between these airports
Route: ROCKI5 CONNR LAWSN DBL
File this flight plan on PilotEdge
Remarks:
Altitude:
(Current/Filed)
18,000ft
Speed:
(Current/Filed)
250kts
Departed: 03-Mar-21 05:37 PM
Arrived: 03-Mar-21 06:08 PM
Distance/Time
Traveled:
109nm/0:31
Distance/Time
To Go:
Arrived

Flight Plot

Page will automatically refresh every two minutes.

Flight plan parsing failed; only flown route is shown


Map Options




Map Legend


Flown Route
Filed Route
Departure Airport
Arrival Airport
Navaid (VOR, NDB)
Fix

Horizontal Profiles

Position Reports

Time Latitude Longitude Heading Altitude Ground
Speed
03-Mar-21 17:02 39.838747 -104.664055 113 5418ft 0kts
03-Mar-21 17:03 39.838747 -104.664055 113 5418ft 0kts
03-Mar-21 17:04 39.838747 -104.664055 113 5418ft 0kts
03-Mar-21 17:05 39.838747 -104.664055 113 5418ft 0kts
03-Mar-21 17:06 39.838747 -104.664055 113 5418ft 0kts
03-Mar-21 17:07 39.838747 -104.664055 113 5418ft 0kts
03-Mar-21 17:08 39.838747 -104.664055 113 5418ft 0kts
03-Mar-21 17:09 39.838747 -104.664055 113 5418ft 0kts
03-Mar-21 17:10 39.838747 -104.664055 113 5418ft 0kts
03-Mar-21 17:11 39.838747 -104.664055 113 5418ft 0kts
03-Mar-21 17:12 39.838747 -104.664055 113 5418ft 0kts
03-Mar-21 17:13 39.838747 -104.664055 113 5418ft 0kts
03-Mar-21 17:14 39.838747 -104.664055 113 5418ft 0kts
03-Mar-21 17:15 39.838747 -104.664055 113 5418ft 0kts
03-Mar-21 17:16 39.838747 -104.664055 113 5418ft 0kts
03-Mar-21 17:17 39.838747 -104.664055 113 5418ft 0kts
03-Mar-21 17:18 39.838747 -104.664055 113 5418ft 0kts
03-Mar-21 17:19 39.838747 -104.664055 113 5418ft 0kts
03-Mar-21 17:20 39.838747 -104.664055 113 5418ft 0kts
03-Mar-21 17:21 39.838747 -104.664055 113 5418ft 0kts
03-Mar-21 17:22 39.838747 -104.664055 113 5418ft 0kts
03-Mar-21 17:23 39.838747 -104.664055 113 5418ft 0kts
03-Mar-21 17:24 39.838747 -104.664055 113 5418ft 0kts
03-Mar-21 17:25 39.838747 -104.664055 113 5418ft 0kts
03-Mar-21 17:26 39.838747 -104.664055 113 5418ft 0kts
03-Mar-21 17:27 39.838804 -104.663867 35 5419ft 9kts
03-Mar-21 17:28 39.841127 -104.662571 358 5416ft 16kts
03-Mar-21 17:29 39.845930 -104.662523 0 5409ft 19kts
03-Mar-21 17:30 39.852262 -104.662441 0 5394ft 25kts
03-Mar-21 17:31 39.859656 -104.662339 0 5385ft 22kts
03-Mar-21 17:32 39.861093 -104.661648 85 5381ft 0kts
03-Mar-21 17:34 39.861093 -104.661648 85 5381ft 0kts
03-Mar-21 17:35 39.861093 -104.661648 85 5381ft 0kts
03-Mar-21 17:36 39.860613 -104.660147 176 5384ft 0kts
03-Mar-21 17:37 39.834378 -104.661700 195 6182ft 157kts
03-Mar-21 17:38 39.842382 -104.727091 298 7670ft 230kts
03-Mar-21 17:39 39.873963 -104.802499 298 9184ft 243kts
03-Mar-21 17:40 39.889268 -104.885493 238 9942ft 254kts
03-Mar-21 17:41 39.856809 -104.962851 245 10354ft 238kts
03-Mar-21 17:42 39.836415 -105.042091 250 12321ft 220kts
03-Mar-21 17:43 39.818241 -105.119567 251 14186ft 227kts
03-Mar-21 17:44 39.799476 -105.199481 251 15931ft 236kts
03-Mar-21 17:45 39.779915 -105.282430 251 17552ft 244kts
03-Mar-21 17:46 39.758414 -105.373259 251 17981ft 281kts
03-Mar-21 17:47 39.734575 -105.473423 251 18005ft 293kts
03-Mar-21 17:48 39.710560 -105.573366 252 18120ft 286kts
03-Mar-21 17:49 39.686989 -105.671860 255 18097ft 285kts
03-Mar-21 17:50 39.667567 -105.772090 256 18102ft 284kts
03-Mar-21 17:51 39.647864 -105.871681 256 18143ft 284kts
03-Mar-21 17:52 39.628156 -105.970501 256 18120ft 283kts
03-Mar-21 17:53 39.608328 -106.069392 255 18106ft 284kts
03-Mar-21 17:54 39.588450 -106.168055 255 18080ft 281kts
03-Mar-21 17:54 39.571880 -106.250170 255 18111ft 283kts
03-Mar-21 17:56 39.548448 -106.365461 255 18102ft 284kts
03-Mar-21 17:56 39.531648 -106.447937 255 18117ft 283kts
03-Mar-21 17:58 39.507992 -106.563460 254 17889ft 293kts
03-Mar-21 17:59 39.496867 -106.667874 264 17046ft 283kts
03-Mar-21 18:00 39.490843 -106.765492 264 15954ft 264kts
03-Mar-21 18:01 39.485370 -106.857207 265 14869ft 248kts
03-Mar-21 18:01 39.469496 -106.924141 207 13915ft 240kts
03-Mar-21 18:02 39.404075 -106.929805 180 13134ft 229kts
03-Mar-21 18:03 39.343265 -106.928638 163 13007ft 211kts
03-Mar-21 18:05 39.302356 -106.901168 159 11090ft 119kts
03-Mar-21 18:05 39.275065 -106.893493 163 9096ft 114kts
03-Mar-21 18:06 39.246757 -106.880098 161 8021ft 101kts
03-Mar-21 18:07 39.227072 -106.870707 160 7725ft 25kts
03-Mar-21 18:08 39.225856 -106.868892 69 7735ft 8kts

Navigation Log

Ident Type
Flight plan parsing failed, navigation log unavailable